Time;durP1;ratioP1;P1;durP2;ratioP2;P2;SDS_P1;SDS_P2;PMS_P1;PMS_P2;Temp;Humidity;BMP_temperature;BMP_pressure;BME280_temperature;BME280_humidity;BME280_pressure;Samples;Min_cycle;Max_cycle;Signal;HPM_P1;HPM_P2
2022/04/17 00:01:33;;;;;;;;;;;12.70;71.90;;;;;;4967924;28;19914;-64
2022/04/17 00:03:58;;;;;;;;;;;12.70;71.60;;;;;;4957070;28;19930;-66
2022/04/17 00:06:23;;;;;;;;;;;12.60;71.80;;;;;;4967888;28;19997;-65
2022/04/17 00:08:49;;;;;;;;;;;12.60;72.00;;;;;;4961969;28;19981;-67
2022/04/17 00:11:15;;;;;;;;;;;12.60;71.90;;;;;;4966684;28;19925;-67
2022/04/17 00:13:42;;;;;;;;;;;12.60;72.40;;;;;;4966891;28;19922;-67
2022/04/17 00:16:08;;;;;;;;;;;12.60;72.30;;;;;;4957582;28;19914;-65
2022/04/17 00:18:33;;;;;;;;;;;12.50;71.60;;;;;;4967782;28;19989;-62
2022/04/17 00:20:59;;;;;;;;;;;12.50;72.10;;;;;;4960342;28;20348;-63
2022/04/17 00:23:24;;;;;;;;;;;12.50;71.70;;;;;;4968007;28;19911;-66
2022/04/17 00:25:50;;;;;;;;;;;12.40;72.10;;;;;;4965553;28;20391;-62
2022/04/17 00:28:15;;;;;;;;;;;12.30;71.80;;;;;;4958354;28;19981;-64
2022/04/17 00:30:41;;;;;;;;;;;12.30;72.00;;;;;;4967044;28;20008;-64
2022/04/17 00:33:06;;;;;;;;;;;12.30;71.80;;;;;;4960311;28;19927;-65
2022/04/17 00:35:32;;;;;;;;;;;12.20;72.00;;;;;;4967869;28;20395;-65
2022/04/17 00:37:57;;;;;;;;;;;12.20;72.30;;;;;;4964271;28;20338;-63
2022/04/17 00:40:23;;;;;;;;;;;12.20;72.50;;;;;;4959275;28;19921;-65
2022/04/17 00:42:48;;;;;;;;;;;12.20;72.20;;;;;;4968418;28;19920;-63
2022/04/17 00:45:14;;;;;;;;;;;12.10;72.60;;;;;;4959265;28;20399;-66
2022/04/17 00:47:40;;;;;;;;;;;12.10;72.30;;;;;;4967652;28;19918;-65
2022/04/17 00:50:07;;;;;;;;;;;12.10;72.40;;;;;;4968313;28;19917;-62
2022/04/17 00:52:33;;;;;;;;;;;12.00;72.00;;;;;;4964396;28;19926;-67
2022/04/17 00:54:59;;;;;;;;;;;12.00;72.30;;;;;;4971460;28;19921;-64
2022/04/17 00:57:25;;;;;;;;;;;11.90;72.80;;;;;;4963791;28;19914;-64
2022/04/17 00:59:51;;;;;;;;;;;11.90;72.30;;;;;;4969570;28;19911;-66
2022/04/17 01:02:16;;;;;;;;;;;11.80;72.40;;;;;;4967934;28;19914;-66
2022/04/17 01:04:43;;;;;;;;;;;11.90;72.80;;;;;;4966129;28;19914;-65
2022/04/17 01:07:08;;;;;;;;;;;11.80;72.80;;;;;;4971723;28;19914;-65
2022/04/17 01:09:35;;;;;;;;;;;11.80;72.70;;;;;;4963497;28;19929;-66
2022/04/17 01:12:00;;;;;;;;;;;11.80;72.80;;;;;;4971993;28;19977;-66
2022/04/17 01:14:29;;;;;;;;;;;11.70;72.40;;;;;;4968045;28;19949;-66
2022/04/17 01:16:55;;;;;;;;;;;11.70;72.30;;;;;;4967038;28;19958;-66
2022/04/17 01:19:23;;;;;;;;;;;11.70;71.90;;;;;;4971429;28;19950;-67
2022/04/17 01:21:49;;;;;;;;;;;11.70;72.30;;;;;;4970022;28;19964;-63
2022/04/17 01:27:01;;;;;;;;;;;11.70;72.70;;;;;;4960610;28;19969;-67
2022/04/17 01:29:30;;;;;;;;;;;11.70;72.70;;;;;;4971609;28;19918;-65
2022/04/17 01:31:56;;;;;;;;;;;11.60;72.30;;;;;;4968004;28;19922;-65
2022/04/17 01:34:22;;;;;;;;;;;11.50;72.60;;;;;;4962630;28;19925;-66
2022/04/17 01:36:48;;;;;;;;;;;11.50;72.30;;;;;;4971541;28;20264;-65
2022/04/17 01:39:14;;;;;;;;;;;11.40;71.90;;;;;;4971437;28;19968;-65
2022/04/17 01:41:40;;;;;;;;;;;11.40;72.00;;;;;;4970297;28;20306;-66
2022/04/17 01:44:06;;;;;;;;;;;11.40;72.10;;;;;;4967377;28;19919;-66
2022/04/17 01:46:32;;;;;;;;;;;11.30;72.10;;;;;;4963343;28;20449;-65
2022/04/17 01:48:57;;;;;;;;;;;11.30;72.40;;;;;;4971167;28;19961;-64
2022/04/17 01:51:23;;;;;;;;;;;11.30;72.50;;;;;;4962930;28;20008;-65
2022/04/17 01:53:48;;;;;;;;;;;11.30;71.90;;;;;;4969668;28;19910;-66
2022/04/17 01:56:13;;;;;;;;;;;11.20;72.00;;;;;;4967090;28;19915;-66
2022/04/17 01:58:39;;;;;;;;;;;11.20;72.00;;;;;;4964047;28;20000;-65
2022/04/17 02:01:05;;;;;;;;;;;11.20;72.20;;;;;;4969759;28;20402;-67
2022/04/17 02:03:30;;;;;;;;;;;11.20;72.00;;;;;;4962772;28;19921;-65
2022/04/17 02:05:56;;;;;;;;;;;11.20;72.60;;;;;;4968497;28;19919;-64
2022/04/17 02:08:21;;;;;;;;;;;11.10;71.80;;;;;;4967062;28;19952;-66
2022/04/17 02:10:47;;;;;;;;;;;11.10;72.00;;;;;;4965014;28;19918;-66
2022/04/17 02:13:13;;;;;;;;;;;11.10;71.90;;;;;;4970661;28;19922;-64
2022/04/17 02:15:38;;;;;;;;;;;11.10;72.10;;;;;;4961604;28;20013;-64
2022/04/17 02:18:04;;;;;;;;;;;11.00;72.30;;;;;;4967470;28;20391;-64
2022/04/17 02:20:29;;;;;;;;;;;11.00;72.70;;;;;;4966923;28;20005;-67
2022/04/17 02:22:55;;;;;;;;;;;11.00;71.80;;;;;;4966341;28;19914;-67
2022/04/17 02:25:20;;;;;;;;;;;11.00;71.50;;;;;;4969991;28;20013;-68
2022/04/17 02:27:46;;;;;;;;;;;10.90;71.60;;;;;;4986787;28;19918;-66
2022/04/17 02:30:11;;;;;;;;;;;10.90;71.70;;;;;;4968003;28;19962;-67
2022/04/17 02:32:37;;;;;;;;;;;10.90;71.70;;;;;;4965671;28;19926;-69
2022/04/17 02:35:03;;;;;;;;;;;10.80;71.70;;;;;;4966694;28;19957;-66
2022/04/17 02:37:28;;;;;;;;;;;10.80;71.70;;;;;;4970056;28;19969;-67
2022/04/17 02:39:55;;;;;;;;;;;10.80;71.40;;;;;;4959168;28;19929;-68
2022/04/17 02:42:21;;;;;;;;;;;10.70;71.10;;;;;;4969187;28;20033;-67
2022/04/17 02:44:46;;;;;;;;;;;10.70;71.70;;;;;;4964077;28;20362;-67
2022/04/17 02:49:56;;;;;;;;;;;10.60;71.40;;;;;;4966998;28;19985;-68
2022/04/17 02:52:21;;;;;;;;;;;10.60;71.70;;;;;;4960942;28;19922;-68
2022/04/17 02:54:47;;;;;;;;;;;10.60;71.30;;;;;;4969566;28;19918;-67
2022/04/17 02:57:12;;;;;;;;;;;10.50;71.30;;;;;;4962041;28;20367;-69
2022/04/17 02:59:38;;;;;;;;;;;10.50;71.40;;;;;;4973288;28;20275;-66
2022/04/17 03:07:34;;;;;;;;;;;10.40;70.60;;;;;;4972989;28;20372;-66
2022/04/17 03:09:59;;;;;;;;;;;10.40;71.20;;;;;;4972281;28;19942;-69
2022/04/17 03:12:25;;;;;;;;;;;10.50;70.80;;;;;;4972386;28;20012;-67
2022/04/17 03:14:50;;;;;;;;;;;10.40;70.60;;;;;;4966004;28;19910;-66
2022/04/17 03:17:16;;;;;;;;;;;10.40;70.80;;;;;;4971311;28;19921;-68
2022/04/17 03:19:41;;;;;;;;;;;10.30;70.80;;;;;;4972808;28;19918;-68
2022/04/17 03:22:07;;;;;;;;;;;10.30;70.60;;;;;;4972067;28;19997;-65
2022/04/17 03:24:32;;;;;;;;;;;10.30;70.70;;;;;;4971991;28;19949;-64
2022/04/17 03:26:58;;;;;;;;;;;10.30;70.50;;;;;;4972979;28;20283;-66
2022/04/17 03:29:23;;;;;;;;;;;10.20;70.40;;;;;;4972830;28;20374;-66
2022/04/17 03:31:49;;;;;;;;;;;10.20;70.40;;;;;;4972569;28;20487;-65
2022/04/17 03:34:15;;;;;;;;;;;10.20;70.60;;;;;;4968337;28;19997;-68
2022/04/17 03:36:40;;;;;;;;;;;10.20;71.00;;;;;;4972178;28;20049;-67
2022/04/17 03:39:06;;;;;;;;;;;10.10;70.70;;;;;;4972100;28;19925;-66
2022/04/17 03:41:31;;;;;;;;;;;10.10;70.60;;;;;;4972787;28;19996;-67
2022/04/17 03:43:57;;;;;;;;;;;10.10;70.90;;;;;;4972262;28;19926;-64
2022/04/17 03:46:23;;;;;;;;;;;10.10;70.80;;;;;;4968374;28;19993;-67
2022/04/17 03:48:48;;;;;;;;;;;10.00;70.60;;;;;;4968547;28;19914;-66
2022/04/17 03:51:14;;;;;;;;;;;10.10;70.90;;;;;;4960798;28;19914;-67
2022/04/17 03:53:39;;;;;;;;;;;10.00;71.00;;;;;;4968383;28;20268;-68
2022/04/17 03:56:05;;;;;;;;;;;9.90;71.50;;;;;;4967948;28;20009;-68
2022/04/17 03:58:31;;;;;;;;;;;9.90;70.60;;;;;;4960894;28;19914;-65
2022/04/17 04:00:56;;;;;;;;;;;9.90;70.80;;;;;;4968496;28;20290;-65
2022/04/17 04:03:22;;;;;;;;;;;9.90;71.20;;;;;;4961103;28;19914;-64
2022/04/17 04:05:47;;;;;;;;;;;9.80;70.80;;;;;;4967157;28;19911;-67
2022/04/17 04:08:13;;;;;;;;;;;9.80;70.50;;;;;;4964678;28;20418;-66
2022/04/17 04:10:38;;;;;;;;;;;9.80;70.40;;;;;;4961841;28;20367;-65
2022/04/17 04:13:04;;;;;;;;;;;9.70;70.70;;;;;;4968247;28;19957;-66
2022/04/17 04:15:30;;;;;;;;;;;9.70;70.40;;;;;;4960817;28;19957;-66
2022/04/17 04:17:55;;;;;;;;;;;9.70;71.50;;;;;;4965969;28;20347;-64
2022/04/17 04:20:21;;;;;;;;;;;9.70;70.90;;;;;;4964716;28;20368;-65
2022/04/17 04:22:46;;;;;;;;;;;9.70;70.80;;;;;;4962133;28;19914;-66
2022/04/17 04:25:12;;;;;;;;;;;9.70;70.80;;;;;;4968438;28;19993;-67
2022/04/17 04:30:43;;;;;;;;;;;9.60;71.10;;;;;;4929114;29;19950;-66
2022/04/17 04:33:09;;;;;;;;;;;9.60;71.00;;;;;;4928444;29;19926;-65
2022/04/17 04:35:34;;;;;;;;;;;9.50;70.90;;;;;;4930497;29;19990;-63
2022/04/17 04:38:01;;;;;;;;;;;9.50;71.30;;;;;;4930159;29;19911;-64
2022/04/17 04:40:29;;;;;;;;;;;9.50;70.50;;;;;;4929414;29;20059;-66
2022/04/17 04:42:58;;;;;;;;;;;9.40;70.50;;;;;;4928157;29;19994;-66
2022/04/17 04:48:08;;;;;;;;;;;9.50;70.60;;;;;;4928145;29;19921;-68
2022/04/17 04:50:34;;;;;;;;;;;9.50;70.90;;;;;;4930772;29;19911;-66
2022/04/17 04:52:59;;;;;;;;;;;9.50;70.50;;;;;;4930151;29;19950;-65
2022/04/17 04:55:24;;;;;;;;;;;9.40;70.70;;;;;;4930006;29;19993;-66
2022/04/17 04:57:50;;;;;;;;;;;9.40;70.50;;;;;;4930715;29;19926;-65
2022/04/17 05:00:15;;;;;;;;;;;9.40;70.50;;;;;;4929875;28;19915;-63
2022/04/17 05:02:41;;;;;;;;;;;9.40;71.10;;;;;;4963871;28;19917;-66
2022/04/17 05:05:07;;;;;;;;;;;9.40;71.60;;;;;;4964933;28;19914;-63
2022/04/17 05:07:33;;;;;;;;;;;9.40;71.10;;;;;;4967672;28;19925;-66
2022/04/17 05:10:00;;;;;;;;;;;9.40;71.40;;;;;;4968071;28;19915;-67
2022/04/17 05:12:25;;;;;;;;;;;9.40;71.00;;;;;;4967641;28;19937;-66
2022/04/17 05:14:51;;;;;;;;;;;9.30;70.80;;;;;;4961677;28;19917;-64
2022/04/17 05:17:16;;;;;;;;;;;9.30;71.10;;;;;;4966239;28;19921;-66
2022/04/17 05:19:42;;;;;;;;;;;9.30;71.50;;;;;;4966373;28;20019;-64
2022/04/17 05:22:11;;;;;;;;;;;9.30;71.20;;;;;;4956938;28;20343;-65
2022/04/17 05:24:40;;;;;;;;;;;9.30;70.80;;;;;;4967750;28;19918;-66
2022/04/17 05:27:06;;;;;;;;;;;9.30;72.30;;;;;;4960175;28;19987;-67
2022/04/17 05:29:31;;;;;;;;;;;9.30;71.20;;;;;;4967705;28;19911;-67
2022/04/17 05:31:57;;;;;;;;;;;9.30;71.10;;;;;;4964931;28;19922;-65
2022/04/17 05:34:22;;;;;;;;;;;9.30;70.80;;;;;;4978211;28;19914;-65
2022/04/17 05:36:48;;;;;;;;;;;9.30;71.10;;;;;;4971040;28;20446;-66
2022/04/17 05:39:13;;;;;;;;;;;9.30;70.70;;;;;;4962906;28;19950;-65
2022/04/17 05:41:39;;;;;;;;;;;9.30;70.70;;;;;;4971056;28;19911;-66
2022/04/17 05:44:06;;;;;;;;;;;9.40;71.90;;;;;;4967666;28;19993;-65
2022/04/17 05:46:35;;;;;;;;;;;9.40;71.30;;;;;;4963291;28;19914;-61
2022/04/17 05:49:02;;;;;;;;;;;9.40;70.70;;;;;;4970618;28;19922;-64
2022/04/17 05:51:27;;;;;;;;;;;9.40;70.80;;;;;;4962686;28;19922;-64
2022/04/17 05:53:53;;;;;;;;;;;9.40;71.00;;;;;;4968925;28;19910;-66
2022/04/17 05:56:18;;;;;;;;;;;9.40;70.70;;;;;;4967403;28;19929;-66
2022/04/17 05:58:44;;;;;;;;;;;9.50;71.00;;;;;;4964670;28;19921;-68
2022/04/17 06:01:09;;;;;;;;;;;9.40;71.00;;;;;;4970756;28;20383;-63
2022/04/17 06:03:35;;;;;;;;;;;9.50;71.00;;;;;;4962296;28;20336;-66
2022/04/17 06:06:00;;;;;;;;;;;9.50;70.70;;;;;;4968256;28;19914;-66
2022/04/17 06:08:27;;;;;;;;;;;9.50;70.80;;;;;;4970046;28;20005;-64
2022/04/17 06:10:52;;;;;;;;;;;9.50;70.80;;;;;;4969661;28;20534;-65
2022/04/17 06:13:18;;;;;;;;;;;9.60;71.10;;;;;;4970353;28;19933;-65
2022/04/17 06:15:44;;;;;;;;;;;9.60;70.60;;;;;;4961088;28;20002;-66
2022/04/17 06:18:10;;;;;;;;;;;9.60;70.10;;;;;;4967681;28;19911;-65
2022/04/17 06:20:35;;;;;;;;;;;9.60;70.40;;;;;;4966787;28;19911;-66
2022/04/17 06:23:01;;;;;;;;;;;9.60;70.20;;;;;;4966319;28;20390;-64
2022/04/17 06:25:26;;;;;;;;;;;9.70;70.70;;;;;;4970034;28;20402;-67
2022/04/17 06:27:52;;;;;;;;;;;9.70;70.40;;;;;;4959997;28;20009;-66
2022/04/17 06:30:19;;;;;;;;;;;9.70;69.30;;;;;;4968417;28;19920;-67
2022/04/17 06:32:45;;;;;;;;;;;9.70;70.00;;;;;;4975223;28;19968;-66
2022/04/17 06:35:11;;;;;;;;;;;9.70;69.90;;;;;;4968803;28;20006;-65
2022/04/17 06:37:50;;;;;;;;;;;9.70;69.90;;;;;;4971265;28;19965;-65
2022/04/17 06:40:17;;;;;;;;;;;9.80;70.50;;;;;;4963075;28;20009;-60
2022/04/17 06:42:43;;;;;;;;;;;9.80;70.30;;;;;;4969030;28;19914;-63
2022/04/17 06:45:09;;;;;;;;;;;9.80;70.50;;;;;;4961497;28;19926;-60
2022/04/17 06:47:34;;;;;;;;;;;9.90;71.00;;;;;;4969224;28;19920;-62
2022/04/17 06:50:00;;;;;;;;;;;10.00;70.50;;;;;;4966277;28;19965;-62
2022/04/17 06:52:25;;;;;;;;;;;10.10;70.60;;;;;;4960777;28;19922;-62
2022/04/17 06:54:51;;;;;;;;;;;10.10;70.60;;;;;;4968430;28;19918;-62
2022/04/17 06:57:16;;;;;;;;;;;10.20;70.70;;;;;;4961831;28;19948;-63
2022/04/17 06:59:42;;;;;;;;;;;10.20;70.70;;;;;;4969036;28;19918;-61
2022/04/17 07:02:07;;;;;;;;;;;10.30;70.90;;;;;;4965632;28;19965;-64
2022/04/17 07:04:33;;;;;;;;;;;10.30;70.00;;;;;;4963367;28;19922;-61
2022/04/17 07:06:58;;;;;;;;;;;10.30;70.60;;;;;;4975882;28;19917;-61
2022/04/17 07:09:24;;;;;;;;;;;10.40;69.40;;;;;;4972994;28;19914;-62
2022/04/17 07:11:49;;;;;;;;;;;10.30;69.60;;;;;;4974455;28;19918;-62
2022/04/17 07:14:15;;;;;;;;;;;10.40;69.50;;;;;;4974448;28;20017;-62
2022/04/17 07:16:42;;;;;;;;;;;10.40;69.10;;;;;;4970403;28;20016;-63
2022/04/17 07:19:08;;;;;;;;;;;10.40;69.70;;;;;;4968587;28;19953;-63
2022/04/17 07:21:33;;;;;;;;;;;10.40;69.40;;;;;;4970138;28;19957;-61
2022/04/17 07:23:59;;;;;;;;;;;10.50;69.60;;;;;;4972787;28;19914;-65
2022/04/17 07:26:24;;;;;;;;;;;10.50;69.80;;;;;;4970540;28;19925;-62
2022/04/17 07:28:50;;;;;;;;;;;10.50;69.90;;;;;;4969746;28;19922;-61
2022/04/17 07:31:15;;;;;;;;;;;10.60;68.30;;;;;;4970126;28;19922;-62
2022/04/17 07:33:41;;;;;;;;;;;10.60;69.30;;;;;;4970309;28;19914;-62
2022/04/17 07:36:06;;;;;;;;;;;10.60;68.80;;;;;;4985591;28;19920;-61
2022/04/17 07:38:32;;;;;;;;;;;10.70;68.60;;;;;;4970560;28;19952;-63
2022/04/17 07:40:57;;;;;;;;;;;10.70;68.00;;;;;;4969459;28;19918;-63
2022/04/17 07:43:23;;;;;;;;;;;10.70;68.40;;;;;;4969934;28;20001;-60
2022/04/17 07:45:48;;;;;;;;;;;10.70;68.40;;;;;;4969675;28;20501;-64
2022/04/17 07:48:14;;;;;;;;;;;10.70;68.70;;;;;;4969524;28;20009;-65
2022/04/17 07:50:39;;;;;;;;;;;10.80;69.00;;;;;;4970808;28;20418;-61
2022/04/17 07:53:04;;;;;;;;;;;10.80;69.90;;;;;;4969824;28;19965;-62
2022/04/17 07:55:30;;;;;;;;;;;10.90;68.80;;;;;;4969680;28;20287;-63
2022/04/17 07:58:12;;;;;;;;;;;11.00;68.70;;;;;;4968963;28;19998;-62
2022/04/17 08:00:57;;;;;;;;;;;11.10;67.80;;;;;;4971228;28;19961;-61
2022/04/17 08:06:01;;;;;;;;;;;11.30;67.00;;;;;;4974182;28;19985;-61
2022/04/17 08:08:26;;;;;;;;;;;11.30;66.90;;;;;;4972415;28;19925;-63
2022/04/17 08:10:52;;;;;;;;;;;11.30;67.60;;;;;;4969300;28;19922;-61
2022/04/17 08:13:17;;;;;;;;;;;11.40;66.90;;;;;;4969270;28;19930;-62
2022/04/17 08:15:43;;;;;;;;;;;11.40;66.30;;;;;;4969837;28;19921;-63
2022/04/17 08:18:09;;;;;;;;;;;11.50;66.40;;;;;;4967397;28;20268;-61
2022/04/17 08:20:35;;;;;;;;;;;11.50;66.60;;;;;;4970064;28;19914;-63
2022/04/17 08:23:00;;;;;;;;;;;11.50;67.20;;;;;;4968536;28;19914;-62
2022/04/17 08:25:26;;;;;;;;;;;11.60;67.20;;;;;;4968913;28;20651;-62
2022/04/17 08:27:52;;;;;;;;;;;11.70;65.60;;;;;;4968028;28;19918;-64
2022/04/17 08:30:22;;;;;;;;;;;11.70;66.20;;;;;;4969183;28;19918;-62
2022/04/17 08:32:48;;;;;;;;;;;11.70;66.50;;;;;;4969333;28;19926;-60
2022/04/17 08:35:13;;;;;;;;;;;11.70;66.50;;;;;;4968732;28;19977;-61
2022/04/17 08:37:39;;;;;;;;;;;11.90;65.50;;;;;;4968137;28;19941;-63
2022/04/17 08:40:04;;;;;;;;;;;11.90;66.40;;;;;;4969130;28;19925;-62
2022/04/17 08:42:31;;;;;;;;;;;12.10;65.30;;;;;;4968906;28;19914;-62
2022/04/17 08:44:56;;;;;;;;;;;12.10;65.10;;;;;;4972562;28;19940;-59
2022/04/17 08:47:22;;;;;;;;;;;12.20;65.10;;;;;;4965239;28;19914;-61
2022/04/17 08:49:48;;;;;;;;;;;12.20;65.60;;;;;;4968285;28;19929;-62
2022/04/17 08:52:15;;;;;;;;;;;12.30;63.60;;;;;;4970110;28;20807;-61
2022/04/17 08:54:41;;;;;;;;;;;12.30;62.00;;;;;;4971563;28;19914;-63
2022/04/17 08:57:07;;;;;;;;;;;12.30;63.70;;;;;;4972844;28;20001;-63
2022/04/17 08:59:33;;;;;;;;;;;12.40;63.20;;;;;;4975275;28;19996;-61
2022/04/17 09:02:06;;;;;;;;;;;12.40;63.70;;;;;;4975205;28;20379;-62
2022/04/17 09:04:32;;;;;;;;;;;12.50;63.30;;;;;;4976578;28;19913;-62
2022/04/17 09:06:57;;;;;;;;;;;12.70;61.80;;;;;;4974325;28;20005;-61
2022/04/17 09:09:22;;;;;;;;;;;12.80;62.70;;;;;;4971280;28;19922;-61
2022/04/17 09:11:52;;;;;;;;;;;12.70;62.70;;;;;;4970660;28;19930;-61
2022/04/17 09:14:19;;;;;;;;;;;12.70;63.00;;;;;;4972755;28;19965;-61
2022/04/17 09:16:49;;;;;;;;;;;12.70;63.40;;;;;;4972330;28;20379;-61
2022/04/17 09:19:15;;;;;;;;;;;12.70;63.30;;;;;;4972796;28;19921;-61
2022/04/17 09:21:41;;;;;;;;;;;12.70;63.40;;;;;;4971980;28;19969;-60
2022/04/17 09:24:20;;;;;;;;;;;12.70;63.60;;;;;;4971552;28;20352;-63
2022/04/17 09:26:50;;;;;;;;;;;12.80;60.80;;;;;;4972833;28;19925;-61
2022/04/17 09:29:19;;;;;;;;;;;12.80;62.00;;;;;;4971113;28;20006;-62
2022/04/17 09:31:45;;;;;;;;;;;12.70;62.90;;;;;;4971457;28;19993;-62
2022/04/17 09:34:10;;;;;;;;;;;12.80;62.90;;;;;;4975481;28;20393;-62
2022/04/17 09:36:37;;;;;;;;;;;12.80;63.40;;;;;;4972953;28;19914;-64
2022/04/17 09:39:11;;;;;;;;;;;12.90;60.90;;;;;;4976996;28;19924;-62
2022/04/17 09:41:50;;;;;;;;;;;13.00;62.50;;;;;;4973554;28;19920;-62
2022/04/17 09:44:32;;;;;;;;;;;13.10;62.40;;;;;;4974532;28;19922;-63
2022/04/17 09:46:58;;;;;;;;;;;13.10;59.70;;;;;;4976694;28;19960;-63
2022/04/17 09:49:24;;;;;;;;;;;13.20;62.10;;;;;;4971741;28;19965;-64
2022/04/17 09:52:04;;;;;;;;;;;13.30;61.70;;;;;;4971280;28;19918;-62
2022/04/17 09:54:30;;;;;;;;;;;13.30;61.80;;;;;;4977145;28;19926;-62
2022/04/17 09:56:56;;;;;;;;;;;13.30;61.10;;;;;;4972678;28;19918;-63
2022/04/17 09:59:22;;;;;;;;;;;13.30;60.20;;;;;;4974071;28;19917;-61
2022/04/17 10:01:49;;;;;;;;;;;13.40;59.20;;;;;;4971933;28;19925;-59
2022/04/17 10:04:19;;;;;;;;;;;13.30;60.30;;;;;;4972061;28;19964;-61
2022/04/17 10:06:49;;;;;;;;;;;13.40;58.80;;;;;;4971954;28;20379;-62
2022/04/17 10:09:14;;;;;;;;;;;13.40;59.70;;;;;;4971562;28;19920;-63
2022/04/17 10:11:40;;;;;;;;;;;13.40;60.30;;;;;;4972199;28;20005;-63
2022/04/17 10:14:06;;;;;;;;;;;13.50;61.20;;;;;;4971402;28;19914;-62
2022/04/17 10:16:33;;;;;;;;;;;13.60;60.20;;;;;;4971455;28;19918;-64
2022/04/17 10:19:05;;;;;;;;;;;13.80;57.80;;;;;;4971682;28;19921;-63
2022/04/17 10:21:31;;;;;;;;;;;13.80;60.00;;;;;;4970633;28;20354;-64
2022/04/17 10:23:59;;;;;;;;;;;13.90;57.60;;;;;;4972349;28;19918;-63
2022/04/17 10:26:26;;;;;;;;;;;13.90;56.70;;;;;;4971586;28;20400;-63
2022/04/17 10:28:54;;;;;;;;;;;14.00;57.50;;;;;;4970821;28;19948;-63
2022/04/17 10:31:20;;;;;;;;;;;14.10;57.80;;;;;;4971348;28;19933;-64
2022/04/17 10:33:45;;;;;;;;;;;14.20;56.00;;;;;;4971617;28;19973;-63
2022/04/17 10:36:18;;;;;;;;;;;14.20;58.70;;;;;;4974421;28;19914;-63
2022/04/17 10:38:49;;;;;;;;;;;14.20;57.70;;;;;;4970176;28;19915;-62
2022/04/17 10:41:15;;;;;;;;;;;14.30;55.50;;;;;;4969677;28;20287;-61
2022/04/17 10:43:46;;;;;;;;;;;14.20;56.40;;;;;;4970931;28;19915;-62
2022/04/17 10:46:16;;;;;;;;;;;14.30;56.80;;;;;;4969446;28;19930;-64
2022/04/17 10:48:42;;;;;;;;;;;14.30;56.10;;;;;;4970542;28;20024;-61
2022/04/17 10:51:20;;;;;;;;;;;14.40;56.20;;;;;;4974517;28;19914;-61
2022/04/17 10:53:58;;;;;;;;;;;14.40;56.70;;;;;;4971461;28;19926;-62
2022/04/17 10:56:23;;;;;;;;;;;14.50;55.50;;;;;;4970964;28;20387;-61
2022/04/17 10:58:59;;;;;;;;;;;14.50;57.00;;;;;;4973505;28;19922;-62
2022/04/17 11:01:40;;;;;;;;;;;14.50;57.30;;;;;;4970828;28;19914;-60
2022/04/17 11:04:15;;;;;;;;;;;14.70;56.50;;;;;;4970081;28;19918;-63
2022/04/17 11:06:42;;;;;;;;;;;14.70;56.80;;;;;;4975987;28;19969;-62
2022/04/17 11:09:18;;;;;;;;;;;14.80;56.70;;;;;;4971231;28;19914;-62
2022/04/17 11:11:45;;;;;;;;;;;14.80;56.90;;;;;;4972869;28;19925;-62
2022/04/17 11:14:16;;;;;;;;;;;14.90;57.00;;;;;;4970367;28;19969;-63
2022/04/17 11:16:47;;;;;;;;;;;14.90;56.30;;;;;;4972915;28;20301;-62
2022/04/17 11:19:13;;;;;;;;;;;15.00;54.80;;;;;;4973304;28;20400;-62
2022/04/17 11:21:46;;;;;;;;;;;15.20;52.80;;;;;;4972768;28;20024;-63
2022/04/17 11:24:11;;;;;;;;;;;15.30;50.60;;;;;;4966646;28;19925;-62
2022/04/17 11:26:52;;;;;;;;;;;15.40;53.20;;;;;;4970723;28;19918;-68
2022/04/17 11:29:33;;;;;;;;;;;15.30;54.50;;;;;;4969047;28;19961;-65
2022/04/17 11:31:59;;;;;;;;;;;15.10;53.30;;;;;;4969476;28;19929;-64
2022/04/17 11:34:24;;;;;;;;;;;15.10;54.50;;;;;;4970238;28;19996;-56
2022/04/17 11:36:51;;;;;;;;;;;15.20;55.60;;;;;;4969792;28;19965;-58
2022/04/17 11:39:28;;;;;;;;;;;15.30;55.40;;;;;;4970253;28;19921;-56
2022/04/17 11:41:54;;;;;;;;;;;15.40;56.80;;;;;;4970205;28;19914;-60
2022/04/17 11:44:19;;;;;;;;;;;15.50;53.50;;;;;;4969718;28;19925;-60
2022/04/17 11:46:45;;;;;;;;;;;15.60;53.40;;;;;;4970229;28;19922;-60
2022/04/17 11:49:10;;;;;;;;;;;15.70;52.60;;;;;;4969878;28;19956;-60
2022/04/17 11:51:43;;;;;;;;;;;15.70;52.90;;;;;;4969089;28;19914;-60
2022/04/17 11:54:28;;;;;;;;;;;15.80;53.90;;;;;;4969869;28;20001;-60
2022/04/17 11:56:54;;;;;;;;;;;15.90;51.40;;;;;;4970249;28;20407;-60
2022/04/17 11:59:19;;;;;;;;;;;16.00;51.20;;;;;;4969609;28;20030;-60
2022/04/17 12:01:45;;;;;;;;;;;16.00;50.20;;;;;;4984110;28;19918;-61
2022/04/17 12:04:20;;;;;;;;;;;16.10;50.80;;;;;;4969532;28;19968;-60
2022/04/17 12:06:46;;;;;;;;;;;16.20;51.70;;;;;;4968746;28;20276;-58
2022/04/17 12:09:11;;;;;;;;;;;16.30;50.40;;;;;;4969328;28;19961;-59
2022/04/17 12:11:39;;;;;;;;;;;16.30;52.50;;;;;;4967449;28;19918;-58
2022/04/17 12:14:05;;;;;;;;;;;16.40;50.40;;;;;;4968994;28;20283;-58
2022/04/17 12:16:30;;;;;;;;;;;16.50;49.90;;;;;;4968634;28;19914;-59
2022/04/17 12:18:56;;;;;;;;;;;16.50;51.40;;;;;;4969567;28;19921;-58
2022/04/17 12:21:28;;;;;;;;;;;16.60;49.80;;;;;;4969093;28;20009;-61
2022/04/17 12:23:54;;;;;;;;;;;16.70;51.10;;;;;;4970050;28;19924;-57
2022/04/17 12:26:20;;;;;;;;;;;16.80;52.10;;;;;;4969069;28;19914;-58
2022/04/17 12:28:49;;;;;;;;;;;16.70;51.20;;;;;;4967510;28;20230;-59
2022/04/17 12:31:15;;;;;;;;;;;16.80;50.10;;;;;;4968435;28;20535;-59
2022/04/17 12:33:41;;;;;;;;;;;16.90;51.30;;;;;;4969300;28;20017;-58
2022/04/17 12:36:11;;;;;;;;;;;16.90;50.90;;;;;;4969544;28;20004;-59
2022/04/17 12:38:38;;;;;;;;;;;16.90;50.70;;;;;;4969250;28;20508;-57
2022/04/17 12:41:17;;;;;;;;;;;17.10;49.90;;;;;;4968445;28;20378;-58
2022/04/17 12:43:42;;;;;;;;;;;17.10;50.90;;;;;;4969475;28;19914;-59
2022/04/17 12:46:09;;;;;;;;;;;17.10;51.20;;;;;;4973101;28;19929;-60
2022/04/17 12:48:35;;;;;;;;;;;17.20;50.00;;;;;;4973250;28;20342;-60
2022/04/17 12:51:03;;;;;;;;;;;17.30;49.50;;;;;;4976669;28;19964;-59
2022/04/17 12:53:42;;;;;;;;;;;17.40;51.90;;;;;;4973144;28;19926;-59
2022/04/17 12:56:08;;;;;;;;;;;17.40;50.20;;;;;;4972932;28;19925;-59
2022/04/17 12:58:47;;;;;;;;;;;17.40;50.20;;;;;;4972957;28;19956;-58
2022/04/17 13:01:20;;;;;;;;;;;17.40;50.50;;;;;;4973276;28;19914;-59
2022/04/17 13:03:46;;;;;;;;;;;17.40;50.20;;;;;;4972699;28;20410;-58
2022/04/17 13:06:17;;;;;;;;;;;17.40;49.90;;;;;;4973361;28;19922;-59
2022/04/17 13:08:42;;;;;;;;;;;17.50;50.50;;;;;;4973557;28;19961;-58
2022/04/17 13:11:20;;;;;;;;;;;17.50;48.80;;;;;;4973125;28;20323;-58
2022/04/17 13:13:50;;;;;;;;;;;17.60;50.20;;;;;;4972498;28;20076;-58
2022/04/17 13:16:15;;;;;;;;;;;17.60;49.50;;;;;;4971188;28;19925;-59
2022/04/17 13:18:41;;;;;;;;;;;17.60;48.60;;;;;;4972667;28;19918;-60
2022/04/17 13:21:07;;;;;;;;;;;17.70;48.50;;;;;;4973035;28;20448;-58
2022/04/17 13:23:33;;;;;;;;;;;17.70;48.60;;;;;;4972589;28;19914;-58
2022/04/17 13:25:58;;;;;;;;;;;17.70;48.40;;;;;;4972318;28;20454;-58
2022/04/17 13:28:24;;;;;;;;;;;17.70;49.90;;;;;;4972682;28;19925;-58
2022/04/17 13:30:51;;;;;;;;;;;17.70;49.60;;;;;;4972455;28;19922;-59
2022/04/17 13:33:17;;;;;;;;;;;17.70;50.40;;;;;;4972656;28;19961;-58
2022/04/17 13:35:42;;;;;;;;;;;17.80;50.80;;;;;;4972828;28;19996;-58
2022/04/17 13:38:11;;;;;;;;;;;18.00;49.70;;;;;;4972376;28;19914;-58
2022/04/17 13:40:36;;;;;;;;;;;18.10;49.80;;;;;;4972074;28;20335;-58
2022/04/17 13:43:02;;;;;;;;;;;18.10;49.00;;;;;;4969394;28;19961;-59
2022/04/17 13:45:27;;;;;;;;;;;18.10;49.50;;;;;;4972211;28;20323;-58
2022/04/17 13:47:53;;;;;;;;;;;18.10;50.00;;;;;;4972610;28;20025;-58
2022/04/17 13:50:18;;;;;;;;;;;18.10;48.90;;;;;;4972354;28;19947;-59
2022/04/17 13:52:44;;;;;;;;;;;18.10;49.00;;;;;;4971722;28;20307;-58
2022/04/17 13:55:10;;;;;;;;;;;18.10;48.80;;;;;;4971912;28;19918;-58
2022/04/17 13:57:35;;;;;;;;;;;18.20;48.30;;;;;;4971840;28;19921;-58
2022/04/17 14:00:01;;;;;;;;;;;18.30;48.60;;;;;;4973510;28;19944;-58
2022/04/17 14:02:26;;;;;;;;;;;18.30;48.00;;;;;;4971761;28;20356;-59
2022/04/17 14:04:52;;;;;;;;;;;18.30;48.40;;;;;;4971412;28;19926;-58
2022/04/17 14:07:17;;;;;;;;;;;18.30;47.30;;;;;;4971774;28;19914;-59
2022/04/17 14:09:43;;;;;;;;;;;18.30;48.70;;;;;;4971832;28;20390;-59
2022/04/17 14:12:10;;;;;;;;;;;18.40;48.80;;;;;;4972370;28;20025;-59
2022/04/17 14:14:40;;;;;;;;;;;18.40;48.00;;;;;;4971170;28;20038;-58
2022/04/17 14:17:06;;;;;;;;;;;18.40;48.70;;;;;;4978425;28;20379;-58
2022/04/17 14:19:31;;;;;;;;;;;18.40;49.00;;;;;;4979777;28;19914;-59
2022/04/17 14:21:57;;;;;;;;;;;18.50;49.30;;;;;;4978110;28;20344;-58
2022/04/17 14:24:23;;;;;;;;;;;18.50;49.50;;;;;;4981088;28;19918;-58
2022/04/17 14:26:48;;;;;;;;;;;18.50;49.00;;;;;;4979337;28;19920;-58
2022/04/17 14:29:14;;;;;;;;;;;18.60;48.30;;;;;;4993417;28;19914;-57
2022/04/17 14:31:40;;;;;;;;;;;18.60;48.40;;;;;;4978526;28;20044;-58
2022/04/17 14:34:05;;;;;;;;;;;18.60;47.70;;;;;;4978504;28;20008;-58
2022/04/17 14:36:31;;;;;;;;;;;18.70;47.90;;;;;;4976235;28;19925;-58